sensor_id;sensor_type;location;lat;lon;timestamp;pressure;altitude;pressure_sealevel;temperature;humidity
73267;BME280;61495;53.400;7.608;2023-06-22T00:00:52;101980.59;;;17.72;71.99
73267;BME280;61495;53.400;7.608;2023-06-22T00:03:19;101972.94;;;17.69;72.41
73267;BME280;61495;53.400;7.608;2023-06-22T00:05:46;101982.16;;;17.62;73.13
73267;BME280;61495;53.400;7.608;2023-06-22T00:08:12;101979.06;;;17.58;72.38
73267;BME280;61495;53.400;7.608;2023-06-22T00:10:38;101989.69;;;17.60;73.82
73267;BME280;61495;53.400;7.608;2023-06-22T00:13:04;101990.75;;;17.59;76.24
73267;BME280;61495;53.400;7.608;2023-06-22T00:15:29;101983.91;;;17.56;74.27
73267;BME280;61495;53.400;7.608;2023-06-22T00:17:55;101986.84;;;17.55;75.09
73267;BME280;61495;53.400;7.608;2023-06-22T00:20:22;101996.00;;;17.54;75.12
73267;BME280;61495;53.400;7.608;2023-06-22T00:22:47;101997.28;;;17.51;75.47
73267;BME280;61495;53.400;7.608;2023-06-22T00:25:13;102001.25;;;17.49;77.17
73267;BME280;61495;53.400;7.608;2023-06-22T00:27:38;101993.56;;;17.46;75.03
73267;BME280;61495;53.400;7.608;2023-06-22T00:30:04;101994.81;;;17.43;74.84
73267;BME280;61495;53.400;7.608;2023-06-22T00:32:29;101984.09;;;17.37;74.89
73267;BME280;61495;53.400;7.608;2023-06-22T00:34:55;101992.41;;;17.35;76.30
73267;BME280;61495;53.400;7.608;2023-06-22T00:37:20;101999.13;;;17.33;75.64
73267;BME280;61495;53.400;7.608;2023-06-22T00:39:51;101997.44;;;17.32;76.57
73267;BME280;61495;53.400;7.608;2023-06-22T00:42:17;101996.25;;;17.28;75.81
73267;BME280;61495;53.400;7.608;2023-06-22T00:44:42;101995.84;;;17.24;74.48
73267;BME280;61495;53.400;7.608;2023-06-22T00:47:09;101998.41;;;17.19;76.14
73267;BME280;61495;53.400;7.608;2023-06-22T00:49:34;102004.28;;;17.16;74.52
73267;BME280;61495;53.400;7.608;2023-06-22T00:52:00;101998.69;;;17.11;75.89
73267;BME280;61495;53.400;7.608;2023-06-22T00:54:26;101997.25;;;17.08;75.56
73267;BME280;61495;53.400;7.608;2023-06-22T00:56:54;101999.34;;;17.06;74.85
73267;BME280;61495;53.400;7.608;2023-06-22T00:59:22;101997.28;;;17.02;76.39
73267;BME280;61495;53.400;7.608;2023-06-22T01:01:48;101998.56;;;16.99;76.19
73267;BME280;61495;53.400;7.608;2023-06-22T01:04:13;101990.72;;;16.91;75.99
73267;BME280;61495;53.400;7.608;2023-06-22T01:06:52;101988.44;;;16.88;76.94
73267;BME280;61495;53.400;7.608;2023-06-22T01:09:28;101984.53;;;16.84;77.45
73267;BME280;61495;53.400;7.608;2023-06-22T01:12:01;101982.50;;;16.80;76.06
73267;BME280;61495;53.400;7.608;2023-06-22T01:14:28;101982.09;;;16.76;75.67
73267;BME280;61495;53.400;7.608;2023-06-22T01:17:01;101968.41;;;16.71;76.65
73267;BME280;61495;53.400;7.608;2023-06-22T01:19:46;101966.72;;;16.70;78.16
73267;BME280;61495;53.400;7.608;2023-06-22T01:22:15;101976.31;;;16.66;78.40
73267;BME280;61495;53.400;7.608;2023-06-22T01:27:33;101980.13;;;16.58;77.99
73267;BME280;61495;53.400;7.608;2023-06-22T01:30:02;101976.00;;;16.56;76.41
73267;BME280;61495;53.400;7.608;2023-06-22T01:32:31;101971.41;;;16.50;76.41
73267;BME280;61495;53.400;7.608;2023-06-22T01:35:02;101974.31;;;16.48;76.95
73267;BME280;61495;53.400;7.608;2023-06-22T01:37:29;101969.34;;;16.45;77.80
73267;BME280;61495;53.400;7.608;2023-06-22T01:39:57;101976.03;;;16.43;79.28
73267;BME280;61495;53.400;7.608;2023-06-22T01:42:24;101969.41;;;16.39;77.11
73267;BME280;61495;53.400;7.608;2023-06-22T01:44:52;101966.75;;;16.32;79.27
73267;BME280;61495;53.400;7.608;2023-06-22T01:47:19;101981.91;;;16.33;76.69
73267;BME280;61495;53.400;7.608;2023-06-22T01:49:45;101975.06;;;16.31;77.43
73267;BME280;61495;53.400;7.608;2023-06-22T01:52:11;101970.09;;;16.28;80.87
73267;BME280;61495;53.400;7.608;2023-06-22T01:54:37;101975.91;;;16.25;79.36
73267;BME280;61495;53.400;7.608;2023-06-22T01:57:03;101970.94;;;16.22;79.52
73267;BME280;61495;53.400;7.608;2023-06-22T01:59:33;101972.00;;;16.21;80.42
73267;BME280;61495;53.400;7.608;2023-06-22T02:02:08;101963.25;;;16.19;79.19
73267;BME280;61495;53.400;7.608;2023-06-22T02:04:57;101959.97;;;16.17;76.83
73267;BME280;61495;53.400;7.608;2023-06-22T02:07:28;101963.31;;;16.12;77.99
73267;BME280;61495;53.400;7.608;2023-06-22T02:09:56;101960.81;;;16.10;77.40
73267;BME280;61495;53.400;7.608;2023-06-22T02:12:23;101960.22;;;16.08;77.50
73267;BME280;61495;53.400;7.608;2023-06-22T02:14:50;101958.97;;;16.04;76.98
73267;BME280;61495;53.400;7.608;2023-06-22T02:17:17;101955.06;;;16.00;77.04
73267;BME280;61495;53.400;7.608;2023-06-22T02:19:43;101960.47;;;16.00;76.91
73267;BME280;61495;53.400;7.608;2023-06-22T02:22:08;101955.50;;;15.97;77.54
73267;BME280;61495;53.400;7.608;2023-06-22T02:24:34;101947.81;;;15.94;78.08
73267;BME280;61495;53.400;7.608;2023-06-22T02:27:01;101951.53;;;15.93;77.29
73267;BME280;61495;53.400;7.608;2023-06-22T02:29:28;101953.66;;;15.91;77.20
73267;BME280;61495;53.400;7.608;2023-06-22T02:31:54;101957.59;;;15.89;77.46
73267;BME280;61495;53.400;7.608;2023-06-22T02:34:19;101964.25;;;15.86;77.71
73267;BME280;61495;53.400;7.608;2023-06-22T02:36:46;101965.91;;;15.87;77.89
73267;BME280;61495;53.400;7.608;2023-06-22T02:39:18;101962.97;;;15.89;79.19
73267;BME280;61495;53.400;7.608;2023-06-22T02:41:44;101961.53;;;15.86;78.74
73267;BME280;61495;53.400;7.608;2023-06-22T02:44:09;101960.09;;;15.84;79.11
73267;BME280;61495;53.400;7.608;2023-06-22T02:46:35;101967.19;;;15.85;79.48
73267;BME280;61495;53.400;7.608;2023-06-22T02:49:01;101974.44;;;15.84;79.28
73267;BME280;61495;53.400;7.608;2023-06-22T02:51:26;101968.00;;;15.85;79.55
73267;BME280;61495;53.400;7.608;2023-06-22T02:53:51;101977.16;;;15.84;80.03
73267;BME280;61495;53.400;7.608;2023-06-22T02:56:22;101967.81;;;15.80;80.36
73267;BME280;61495;53.400;7.608;2023-06-22T02:58:50;101968.63;;;15.81;79.52
73267;BME280;61495;53.400;7.608;2023-06-22T03:01:16;101971.78;;;15.78;79.39
73267;BME280;61495;53.400;7.608;2023-06-22T03:03:41;101964.31;;;15.73;78.68
73267;BME280;61495;53.400;7.608;2023-06-22T03:06:06;101971.78;;;15.71;79.58
73267;BME280;61495;53.400;7.608;2023-06-22T03:08:32;101968.47;;;15.69;78.67
73267;BME280;61495;53.400;7.608;2023-06-22T03:10:57;101978.44;;;15.69;79.27
73267;BME280;61495;53.400;7.608;2023-06-22T03:13:23;101979.28;;;15.69;79.19
73267;BME280;61495;53.400;7.608;2023-06-22T03:15:49;101974.09;;;15.68;79.86
73267;BME280;61495;53.400;7.608;2023-06-22T03:18:14;101983.84;;;15.69;79.72
73267;BME280;61495;53.400;7.608;2023-06-22T03:20:41;101979.72;;;15.66;79.84
73267;BME280;61495;53.400;7.608;2023-06-22T03:23:06;101978.03;;;15.65;79.74
73267;BME280;61495;53.400;7.608;2023-06-22T03:25:31;101983.44;;;15.65;79.82
73267;BME280;61495;53.400;7.608;2023-06-22T03:27:58;101980.13;;;15.63;80.53
73267;BME280;61495;53.400;7.608;2023-06-22T03:30:24;101978.88;;;15.66;80.92
73267;BME280;61495;53.400;7.608;2023-06-22T03:32:49;101978.03;;;15.65;80.54
73267;BME280;61495;53.400;7.608;2023-06-22T03:35:15;101976.41;;;15.64;80.92
73267;BME280;61495;53.400;7.608;2023-06-22T03:37:40;101984.28;;;15.66;80.41
73267;BME280;61495;53.400;7.608;2023-06-22T03:40:06;101981.78;;;15.64;80.75
73267;BME280;61495;53.400;7.608;2023-06-22T03:42:34;101989.25;;;15.62;80.99
73267;BME280;61495;53.400;7.608;2023-06-22T03:45:00;101985.97;;;15.60;80.33
73267;BME280;61495;53.400;7.608;2023-06-22T03:47:26;101995.31;;;15.57;79.88
73267;BME280;61495;53.400;7.608;2023-06-22T03:49:52;101990.09;;;15.56;79.78
73267;BME280;61495;53.400;7.608;2023-06-22T03:52:20;101984.72;;;15.56;79.73
73267;BME280;61495;53.400;7.608;2023-06-22T03:54:45;101985.78;;;15.55;80.28
73267;BME280;61495;53.400;7.608;2023-06-22T03:57:11;101985.97;;;15.53;79.71
73267;BME280;61495;53.400;7.608;2023-06-22T03:59:36;101983.50;;;15.52;80.39
73267;BME280;61495;53.400;7.608;2023-06-22T04:02:02;101989.72;;;15.52;80.10
73267;BME280;61495;53.400;7.608;2023-06-22T04:04:27;101988.88;;;15.52;81.03
73267;BME280;61495;53.400;7.608;2023-06-22T04:06:53;101980.19;;;15.50;79.82
73267;BME280;61495;53.400;7.608;2023-06-22T04:09:18;101989.91;;;15.51;80.26
73267;BME280;61495;53.400;7.608;2023-06-22T04:11:44;101984.31;;;15.52;80.87
73267;BME280;61495;53.400;7.608;2023-06-22T04:14:09;101988.66;;;15.53;81.45
73267;BME280;61495;53.400;7.608;2023-06-22T04:16:34;101989.50;;;15.54;81.38
73267;BME280;61495;53.400;7.608;2023-06-22T04:19:00;101994.72;;;15.55;80.92
73267;BME280;61495;53.400;7.608;2023-06-22T04:21:25;101986.59;;;15.55;80.50
73267;BME280;61495;53.400;7.608;2023-06-22T04:23:50;101979.09;;;15.57;81.61
73267;BME280;61495;53.400;7.608;2023-06-22T04:26:16;101973.47;;;15.59;80.70
73267;BME280;61495;53.400;7.608;2023-06-22T04:28:41;101983.06;;;15.62;80.99
73267;BME280;61495;53.400;7.608;2023-06-22T04:31:06;101984.69;;;15.63;80.97
73267;BME280;61495;53.400;7.608;2023-06-22T04:33:32;101973.88;;;15.63;81.86
73267;BME280;61495;53.400;7.608;2023-06-22T04:35:58;101967.22;;;15.65;82.40
73267;BME280;61495;53.400;7.608;2023-06-22T04:38:26;101984.25;;;15.72;81.72
73267;BME280;61495;53.400;7.608;2023-06-22T04:40:51;101976.75;;;15.74;83.37
73267;BME280;61495;53.400;7.608;2023-06-22T04:43:18;101992.56;;;15.77;83.10
73267;BME280;61495;53.400;7.608;2023-06-22T04:45:43;101993.78;;;15.81;82.43
73267;BME280;61495;53.400;7.608;2023-06-22T04:48:09;101989.63;;;15.85;82.18
73267;BME280;61495;53.400;7.608;2023-06-22T04:50:36;101986.28;;;15.90;82.53
73267;BME280;61495;53.400;7.608;2023-06-22T04:53:04;101993.13;;;15.92;83.85
73267;BME280;61495;53.400;7.608;2023-06-22T04:55:31;101993.34;;;15.97;82.44
73267;BME280;61495;53.400;7.608;2023-06-22T04:57:57;101999.09;;;16.07;82.26
73267;BME280;61495;53.400;7.608;2023-06-22T05:00:29;101985.31;;;16.16;82.26
73267;BME280;61495;53.400;7.608;2023-06-22T05:02:55;101976.56;;;16.27;85.37
73267;BME280;61495;53.400;7.608;2023-06-22T05:05:23;101971.25;;;16.45;86.14
73267;BME280;61495;53.400;7.608;2023-06-22T05:07:50;101970.16;;;16.59;86.81
73267;BME280;61495;53.400;7.608;2023-06-22T05:10:18;101971.25;;;16.76;86.41
73267;BME280;61495;53.400;7.608;2023-06-22T05:12:44;101970.28;;;16.95;86.00
73267;BME280;61495;53.400;7.608;2023-06-22T05:15:09;101967.16;;;17.16;86.24
73267;BME280;61495;53.400;7.608;2023-06-22T05:17:35;101970.34;;;17.32;86.13
73267;BME280;61495;53.400;7.608;2023-06-22T05:20:02;101976.69;;;17.44;85.45
73267;BME280;61495;53.400;7.608;2023-06-22T05:22:31;101969.75;;;17.54;86.35
73267;BME280;61495;53.400;7.608;2023-06-22T05:24:56;101974.81;;;17.69;86.54
73267;BME280;61495;53.400;7.608;2023-06-22T05:27:22;101979.00;;;17.83;86.01
73267;BME280;61495;53.400;7.608;2023-06-22T05:29:47;101973.06;;;17.93;86.25
73267;BME280;61495;53.400;7.608;2023-06-22T05:32:13;101977.50;;;18.05;85.97
73267;BME280;61495;53.400;7.608;2023-06-22T05:34:38;101977.59;;;18.28;85.10
73267;BME280;61495;53.400;7.608;2023-06-22T05:37:04;101980.72;;;18.44;85.27
73267;BME280;61495;53.400;7.608;2023-06-22T05:39:29;101979.91;;;18.73;83.94
73267;BME280;61495;53.400;7.608;2023-06-22T05:41:54;101970.81;;;18.79;84.40
73267;BME280;61495;53.400;7.608;2023-06-22T05:44:20;101977.09;;;18.91;83.42
73267;BME280;61495;53.400;7.608;2023-06-22T05:46:45;101975.56;;;19.07;83.40
73267;BME280;61495;53.400;7.608;2023-06-22T05:49:12;101988.81;;;19.26;83.43
73267;BME280;61495;53.400;7.608;2023-06-22T05:51:38;101992.69;;;19.30;83.76
73267;BME280;61495;53.400;7.608;2023-06-22T05:54:04;101979.25;;;19.59;82.48
73267;BME280;61495;53.400;7.608;2023-06-22T05:56:29;101984.31;;;19.78;81.58
73267;BME280;61495;53.400;7.608;2023-06-22T05:58:55;101980.50;;;19.91;82.00
73267;BME280;61495;53.400;7.608;2023-06-22T06:01:20;101982.97;;;20.04;81.09
73267;BME280;61495;53.400;7.608;2023-06-22T06:03:46;101983.28;;;20.08;81.91
73267;BME280;61495;53.400;7.608;2023-06-22T06:06:12;101984.66;;;20.22;80.69
73267;BME280;61495;53.400;7.608;2023-06-22T06:08:38;101978.59;;;20.31;79.97
73267;BME280;61495;53.400;7.608;2023-06-22T06:11:03;101978.75;;;20.53;79.67
73267;BME280;61495;53.400;7.608;2023-06-22T06:13:29;101991.72;;;20.63;78.81
73267;BME280;61495;53.400;7.608;2023-06-22T06:15:54;101987.03;;;20.75;78.12
73267;BME280;61495;53.400;7.608;2023-06-22T06:18:22;101986.63;;;20.66;77.82
73267;BME280;61495;53.400;7.608;2023-06-22T06:20:48;101982.38;;;20.59;78.14
73267;BME280;61495;53.400;7.608;2023-06-22T06:23:14;101974.56;;;20.79;77.43
73267;BME280;61495;53.400;7.608;2023-06-22T06:25:39;101974.91;;;20.99;76.84
73267;BME280;61495;53.400;7.608;2023-06-22T06:28:04;101975.25;;;21.19;76.01
73267;BME280;61495;53.400;7.608;2023-06-22T06:30:30;101973.78;;;21.28;75.48
73267;BME280;61495;53.400;7.608;2023-06-22T06:32:55;101975.38;;;21.46;75.15
73267;BME280;61495;53.400;7.608;2023-06-22T06:35:21;101984.47;;;21.51;73.71
73267;BME280;61495;53.400;7.608;2023-06-22T06:37:48;101979.47;;;21.65;72.60
73267;BME280;61495;53.400;7.608;2023-06-22T06:40:15;101984.63;;;21.62;70.96
73267;BME280;61495;53.400;7.608;2023-06-22T06:42:42;101986.13;;;21.52;71.36
73267;BME280;61495;53.400;7.608;2023-06-22T06:45:16;101977.00;;;21.64;71.24
73267;BME280;61495;53.400;7.608;2023-06-22T06:47:42;101984.69;;;21.67;70.40
73267;BME280;61495;53.400;7.608;2023-06-22T06:50:08;101986.41;;;21.73;70.69
73267;BME280;61495;53.400;7.608;2023-06-22T06:52:34;101984.28;;;21.80;71.41
73267;BME280;61495;53.400;7.608;2023-06-22T06:55:01;101988.16;;;21.84;71.24
73267;BME280;61495;53.400;7.608;2023-06-22T06:57:30;101992.41;;;21.91;71.02
73267;BME280;61495;53.400;7.608;2023-06-22T06:59:56;101992.56;;;22.06;70.67
73267;BME280;61495;53.400;7.608;2023-06-22T07:02:22;101990.66;;;22.29;69.79
73267;BME280;61495;53.400;7.608;2023-06-22T07:04:48;101990.97;;;22.32;69.52
73267;BME280;61495;53.400;7.608;2023-06-22T07:07:13;101985.03;;;22.40;69.14
73267;BME280;61495;53.400;7.608;2023-06-22T07:09:39;101984.13;;;22.56;68.03
73267;BME280;61495;53.400;7.608;2023-06-22T07:12:05;101992.09;;;22.63;67.95
73267;BME280;61495;53.400;7.608;2023-06-22T07:14:30;101989.78;;;22.72;66.94
73267;BME280;61495;53.400;7.608;2023-06-22T07:16:57;101986.63;;;22.90;66.16
73267;BME280;61495;53.400;7.608;2023-06-22T07:19:27;101994.56;;;22.86;65.03
73267;BME280;61495;53.400;7.608;2023-06-22T07:21:53;101983.13;;;22.94;64.97
73267;BME280;61495;53.400;7.608;2023-06-22T07:24:20;101982.00;;;23.27;64.74
73267;BME280;61495;53.400;7.608;2023-06-22T07:26:47;101974.47;;;23.44;63.75
73267;BME280;61495;53.400;7.608;2023-06-22T07:29:13;101978.16;;;23.65;64.28
73267;BME280;61495;53.400;7.608;2023-06-22T07:31:39;101972.97;;;23.68;62.61
73267;BME280;61495;53.400;7.608;2023-06-22T07:34:06;101971.91;;;23.74;62.92
73267;BME280;61495;53.400;7.608;2023-06-22T07:36:31;101975.50;;;23.85;61.47
73267;BME280;61495;53.400;7.608;2023-06-22T07:38:56;101983.44;;;23.82;61.76
73267;BME280;61495;53.400;7.608;2023-06-22T07:41:22;101993.38;;;23.98;60.98
73267;BME280;61495;53.400;7.608;2023-06-22T07:43:47;101988.19;;;23.96;60.68
73267;BME280;61495;53.400;7.608;2023-06-22T07:46:13;101983.53;;;24.02;59.94
73267;BME280;61495;53.400;7.608;2023-06-22T07:48:38;101985.16;;;24.03;60.26
73267;BME280;61495;53.400;7.608;2023-06-22T07:51:04;101971.00;;;24.11;59.33
73267;BME280;61495;53.400;7.608;2023-06-22T07:53:31;101979.22;;;24.16;59.96
73267;BME280;61495;53.400;7.608;2023-06-22T07:55:56;101979.25;;;24.26;59.87
73267;BME280;61495;53.400;7.608;2023-06-22T07:58:21;101970.50;;;24.34;59.81
73267;BME280;61495;53.400;7.608;2023-06-22T08:00:47;101966.66;;;24.35;59.19
73267;BME280;61495;53.400;7.608;2023-06-22T08:03:14;101962.53;;;24.32;58.66
73267;BME280;61495;53.400;7.608;2023-06-22T08:05:40;101970.47;;;24.24;58.11
73267;BME280;61495;53.400;7.608;2023-06-22T08:08:05;101962.84;;;24.41;58.77
73267;BME280;61495;53.400;7.608;2023-06-22T08:10:30;101964.78;;;24.51;57.95
73267;BME280;61495;53.400;7.608;2023-06-22T08:12:56;101953.56;;;24.77;58.54
73267;BME280;61495;53.400;7.608;2023-06-22T08:15:21;101950.81;;;24.98;59.04
73267;BME280;61495;53.400;7.608;2023-06-22T08:17:47;101952.47;;;25.14;57.46
73267;BME280;61495;53.400;7.608;2023-06-22T08:20:13;101949.19;;;25.12;56.93
73267;BME280;61495;53.400;7.608;2023-06-22T08:22:39;101945.28;;;25.33;56.72
73267;BME280;61495;53.400;7.608;2023-06-22T08:25:05;101943.34;;;25.43;56.51
73267;BME280;61495;53.400;7.608;2023-06-22T08:27:31;101953.22;;;25.45;56.86
73267;BME280;61495;53.400;7.608;2023-06-22T08:29:58;101947.44;;;25.61;57.04
73267;BME280;61495;53.400;7.608;2023-06-22T08:32:27;101951.22;;;25.75;56.42
73267;BME280;61495;53.400;7.608;2023-06-22T08:34:57;101943.81;;;25.76;55.78
73267;BME280;61495;53.400;7.608;2023-06-22T08:37:22;101941.25;;;25.89;55.99
73267;BME280;61495;53.400;7.608;2023-06-22T08:39:59;101936.78;;;26.09;56.54
73267;BME280;61495;53.400;7.608;2023-06-22T08:42:26;101932.94;;;26.10;55.66
73267;BME280;61495;53.400;7.608;2023-06-22T08:44:51;101939.25;;;26.05;55.81
73267;BME280;61495;53.400;7.608;2023-06-22T08:47:16;101934.50;;;26.26;56.20
73267;BME280;61495;53.400;7.608;2023-06-22T08:49:42;101924.78;;;26.38;55.36
73267;BME280;61495;53.400;7.608;2023-06-22T08:52:07;101932.72;;;26.45;54.51
73267;BME280;61495;53.400;7.608;2023-06-22T08:54:33;101929.56;;;26.62;54.76
73267;BME280;61495;53.400;7.608;2023-06-22T08:57:00;101930.13;;;26.59;54.78
73267;BME280;61495;53.400;7.608;2023-06-22T08:59:25;101927.50;;;26.82;54.23
73267;BME280;61495;53.400;7.608;2023-06-22T09:01:50;101921.47;;;26.80;54.29
73267;BME280;61495;53.400;7.608;2023-06-22T09:04:16;101921.09;;;26.53;53.96
73267;BME280;61495;53.400;7.608;2023-06-22T09:06:41;101922.09;;;26.67;53.24
73267;BME280;61495;53.400;7.608;2023-06-22T09:09:12;101924.66;;;26.92;54.04
73267;BME280;61495;53.400;7.608;2023-06-22T09:11:38;101919.16;;;26.92;52.25
73267;BME280;61495;53.400;7.608;2023-06-22T09:14:03;101921.13;;;26.87;51.78
73267;BME280;61495;53.400;7.608;2023-06-22T09:16:29;101926.78;;;27.00;52.61
73267;BME280;61495;53.400;7.608;2023-06-22T09:18:55;101914.03;;;27.10;52.62
73267;BME280;61495;53.400;7.608;2023-06-22T09:21:20;101911.56;;;27.08;52.37
73267;BME280;61495;53.400;7.608;2023-06-22T09:23:46;101920.72;;;27.27;52.06
73267;BME280;61495;53.400;7.608;2023-06-22T09:26:15;101919.41;;;27.48;53.29
73267;BME280;61495;53.400;7.608;2023-06-22T09:28:40;101912.41;;;27.56;52.50
73267;BME280;61495;53.400;7.608;2023-06-22T09:31:06;101922.25;;;27.62;52.19
73267;BME280;61495;53.400;7.608;2023-06-22T09:33:31;101924.38;;;27.70;51.75
73267;BME280;61495;53.400;7.608;2023-06-22T09:35:57;101913.47;;;27.60;51.27
73267;BME280;61495;53.400;7.608;2023-06-22T09:38:22;101916.16;;;27.65;50.92
73267;BME280;61495;53.400;7.608;2023-06-22T09:40:48;101913.53;;;27.55;51.87
73267;BME280;61495;53.400;7.608;2023-06-22T09:43:13;101909.53;;;27.66;51.62
73267;BME280;61495;53.400;7.608;2023-06-22T09:45:38;101907.69;;;27.80;51.98
73267;BME280;61495;53.400;7.608;2023-06-22T09:48:04;101906.66;;;27.76;50.88
73267;BME280;61495;53.400;7.608;2023-06-22T09:50:29;101906.78;;;27.66;50.46
73267;BME280;61495;53.400;7.608;2023-06-22T09:52:54;101901.66;;;27.78;49.95
73267;BME280;61495;53.400;7.608;2023-06-22T09:55:23;101896.78;;;27.94;50.60
73267;BME280;61495;53.400;7.608;2023-06-22T09:57:48;101896.03;;;28.07;50.95
73267;BME280;61495;53.400;7.608;2023-06-22T10:00:15;101893.78;;;27.90;50.30
73267;BME280;61495;53.400;7.608;2023-06-22T10:02:42;101881.34;;;27.93;50.62
73267;BME280;61495;53.400;7.608;2023-06-22T10:05:08;101882.59;;;28.00;50.14
73267;BME280;61495;53.400;7.608;2023-06-22T10:07:33;101880.59;;;27.87;49.59
73267;BME280;61495;53.400;7.608;2023-06-22T10:09:59;101880.25;;;28.12;49.97
73267;BME280;61495;53.400;7.608;2023-06-22T10:12:26;101874.94;;;28.35;50.78
73267;BME280;61495;53.400;7.608;2023-06-22T10:14:52;101874.28;;;28.24;49.90
73267;BME280;61495;53.400;7.608;2023-06-22T10:17:17;101873.97;;;28.44;49.26
73267;BME280;61495;53.400;7.608;2023-06-22T10:19:43;101871.94;;;28.50;49.53
73267;BME280;61495;53.400;7.608;2023-06-22T10:22:08;101871.84;;;28.55;49.53
73267;BME280;61495;53.400;7.608;2023-06-22T10:24:34;101871.13;;;28.49;49.74
73267;BME280;61495;53.400;7.608;2023-06-22T10:26:59;101868.13;;;28.46;48.68
73267;BME280;61495;53.400;7.608;2023-06-22T10:29:24;101858.38;;;28.53;48.68
73267;BME280;61495;53.400;7.608;2023-06-22T10:31:50;101853.34;;;28.55;49.01
73267;BME280;61495;53.400;7.608;2023-06-22T10:34:15;101850.59;;;28.74;48.95
73267;BME280;61495;53.400;7.608;2023-06-22T10:36:40;101855.06;;;28.70;48.26
73267;BME280;61495;53.400;7.608;2023-06-22T10:39:06;101848.94;;;28.73;48.27
73267;BME280;61495;53.400;7.608;2023-06-22T10:41:31;101850.16;;;28.67;47.67
73267;BME280;61495;53.400;7.608;2023-06-22T10:43:56;101849.25;;;28.85;47.33
73267;BME280;61495;53.400;7.608;2023-06-22T10:46:24;101841.59;;;28.82;47.09
73267;BME280;61495;53.400;7.608;2023-06-22T10:48:50;101848.75;;;28.97;47.68
73267;BME280;61495;53.400;7.608;2023-06-22T10:51:15;101859.38;;;28.90;46.56
73267;BME280;61495;53.400;7.608;2023-06-22T10:53:40;101852.22;;;29.02;47.89
73267;BME280;61495;53.400;7.608;2023-06-22T10:56:06;101840.69;;;29.00;47.73
73267;BME280;61495;53.400;7.608;2023-06-22T10:58:31;101845.19;;;28.96;47.67
73267;BME280;61495;53.400;7.608;2023-06-22T11:00:57;101838.31;;;29.07;47.23
73267;BME280;61495;53.400;7.608;2023-06-22T11:03:22;101842.13;;;29.25;46.51
73267;BME280;61495;53.400;7.608;2023-06-22T11:05:47;101836.47;;;29.16;47.90
73267;BME280;61495;53.400;7.608;2023-06-22T11:08:13;101835.88;;;29.19;47.23
73267;BME280;61495;53.400;7.608;2023-06-22T11:10:38;101839.94;;;29.22;46.75
73267;BME280;61495;53.400;7.608;2023-06-22T11:13:03;101835.47;;;28.85;46.25
73267;BME280;61495;53.400;7.608;2023-06-22T11:15:30;101838.75;;;29.14;47.43
73267;BME280;61495;53.400;7.608;2023-06-22T11:17:55;101830.06;;;29.21;46.83
73267;BME280;61495;53.400;7.608;2023-06-22T11:20:22;101838.97;;;29.32;46.63
73267;BME280;61495;53.400;7.608;2023-06-22T11:22:47;101835.28;;;29.36;46.47
73267;BME280;61495;53.400;7.608;2023-06-22T11:25:13;101834.22;;;29.46;45.94
73267;BME280;61495;53.400;7.608;2023-06-22T11:27:38;101830.59;;;29.37;46.53
73267;BME280;61495;53.400;7.608;2023-06-22T11:30:04;101826.91;;;29.28;45.13
73267;BME280;61495;53.400;7.608;2023-06-22T11:32:30;101820.63;;;29.22;45.17
73267;BME280;61495;53.400;7.608;2023-06-22T11:34:55;101812.38;;;29.36;47.51
73267;BME280;61495;53.400;7.608;2023-06-22T11:37:20;101813.91;;;29.14;45.81
73267;BME280;61495;53.400;7.608;2023-06-22T11:39:46;101810.97;;;29.25;45.82
73267;BME280;61495;53.400;7.608;2023-06-22T11:42:11;101816.25;;;29.35;46.11
73267;BME280;61495;53.400;7.608;2023-06-22T11:44:37;101814.09;;;29.45;47.36
73267;BME280;61495;53.400;7.608;2023-06-22T11:47:03;101807.88;;;29.40;46.17
73267;BME280;61495;53.400;7.608;2023-06-22T11:49:30;101810.91;;;29.52;45.87
73267;BME280;61495;53.400;7.608;2023-06-22T11:51:56;101811.44;;;29.54;46.56
73267;BME280;61495;53.400;7.608;2023-06-22T11:54:21;101818.16;;;29.61;46.28
73267;BME280;61495;53.400;7.608;2023-06-22T11:56:47;101814.19;;;29.54;46.30
73267;BME280;61495;53.400;7.608;2023-06-22T11:59:12;101812.13;;;29.46;45.32
73267;BME280;61495;53.400;7.608;2023-06-22T12:01:38;101811.25;;;29.72;46.15
73267;BME280;61495;53.400;7.608;2023-06-22T12:04:04;101805.56;;;29.69;45.79
73267;BME280;61495;53.400;7.608;2023-06-22T12:06:35;101812.91;;;29.73;46.13
73267;BME280;61495;53.400;7.608;2023-06-22T12:09:03;101824.19;;;29.63;47.03
73267;BME280;61495;53.400;7.608;2023-06-22T12:11:30;101809.69;;;29.17;46.67
73267;BME280;61495;53.400;7.608;2023-06-22T12:13:55;101811.13;;;29.42;47.59
73267;BME280;61495;53.400;7.608;2023-06-22T12:16:21;101804.19;;;29.44;46.71
73267;BME280;61495;53.400;7.608;2023-06-22T12:18:47;101798.06;;;29.34;47.15
73267;BME280;61495;53.400;7.608;2023-06-22T12:21:12;101790.00;;;29.24;46.22
73267;BME280;61495;53.400;7.608;2023-06-22T12:23:38;101781.28;;;29.03;47.76
73267;BME280;61495;53.400;7.608;2023-06-22T12:26:03;101783.72;;;29.32;47.51
73267;BME280;61495;53.400;7.608;2023-06-22T12:28:29;101800.88;;;29.56;47.12
73267;BME280;61495;53.400;7.608;2023-06-22T12:30:54;101780.97;;;29.18;47.08
73267;BME280;61495;53.400;7.608;2023-06-22T12:33:20;101780.25;;;29.12;47.40
73267;BME280;61495;53.400;7.608;2023-06-22T12:35:45;101791.06;;;29.22;46.48
73267;BME280;61495;53.400;7.608;2023-06-22T12:38:11;101775.75;;;29.16;47.23
73267;BME280;61495;53.400;7.608;2023-06-22T12:40:36;101781.56;;;29.01;46.63
73267;BME280;61495;53.400;7.608;2023-06-22T12:43:02;101773.72;;;29.08;47.63
73267;BME280;61495;53.400;7.608;2023-06-22T12:45:28;101765.53;;;29.31;48.40
73267;BME280;61495;53.400;7.608;2023-06-22T12:47:56;101767.50;;;28.89;47.36